עמוד ראשי
METAR-TAF:

METAR-TAF

שדות תעופה :

McGrath, אלסקה, ארצות הברית

קו רוחב: 62-58N, קו אורך: 155-37W, גובה: 103מטר

תצפית מזג אוויר נוכחית

הדו"ח נערך לפני 15דקות, בשעה 09:53 UTC
רוח רגועה
טמפרטורת 11 צלסיוס
לחות 82%
לחץ 1022 hPa
ראות: 16.1קילומטר
שמיים נקיים

METAR: PAMC 150953Z AUTO 00000KT 10SM CLR 11/08 A3018 RMK AO2 SLP222 T01060078 TSNO

זמן: 02:08 (10:08 UTC)

תחזית

הדו"ח נערך לפני 4 שעות ו 48דקות, בשעה 05:20 UTC
תחזית בתוקף מ 15 ב 06 UTC עד 16 ב 06 UTC
רוח 5קשר מכיוון צפון
ראות: 10קילומטר
עננים פזורים בגובה 8000רגל
ממטרים במרחב,

TAF: PAMC 150520Z 1506/1606 35005KT P6SM VCSH SCT080

תצפיות ותחזיות מזג אוויר לגבי יותר מ- 4,000 שדות תעופה ברחבי העולם. דוחות METAR ו- TAF.

התחנות הזמינות מסומנות בנקודות צהובות ואדומות על גבי המפה.

העבר את העכבר לנקודה הצבעונית על מנת לראות את שם התחנה.

לאחר מכן, לחץ כדי לראות את תוכן ואת תחזיות מזג האוויר.

כדי לשנות את המפה: לחץ על הכפתורים הירוקים עם הפלוס השחור כדי להתקרב; על הכפתור הירוק עם המקף כדי להתרחק; או בחיצים הירוקים למפות סמוכות.


METAR-TAF: